Time;durP1;ratioP1;P1;durP2;ratioP2;P2;SDS_P1;SDS_P2;PMS_P1;PMS_P2;Temp;Humidity;BMP_temperature;BMP_pressure;BME280_temperature;BME280_humidity;BME280_pressure;Samples;Min_cycle;Max_cycle;Signal;HPM_P1;HPM_P2
2022/09/18 00:02:22;;;;;;;3.85;1.10;;;;;;;10.49;100.00;100476.91;20889750;28;20475;-69
2022/09/18 00:12:24;;;;;;;7.22;1.38;;;;;;;10.45;100.00;100487.44;20887913;28;1025402;-70
2022/09/18 00:22:25;;;;;;;5.95;1.30;;;;;;;10.51;100.00;100487.34;20892675;28;20123;-70
2022/09/18 00:32:27;;;;;;;8.75;1.40;;;;;;;10.45;100.00;100482.22;20891021;28;20064;-69
2022/09/18 00:42:28;;;;;;;8.10;1.20;;;;;;;10.58;100.00;100477.66;20891578;28;20053;-70
2022/09/18 00:52:29;;;;;;;9.15;1.50;;;;;;;10.57;100.00;100460.22;20890069;28;20057;-71
2022/09/18 01:02:31;;;;;;;7.53;1.40;;;;;;;10.58;100.00;100461.94;20889133;28;20111;-69
2022/09/18 01:12:32;;;;;;;9.55;1.45;;;;;;;10.51;100.00;100456.78;20889497;28;20041;-70
2022/09/18 01:22:34;;;;;;;7.53;1.60;;;;;;;10.46;100.00;100458.63;20879580;28;20480;-70
2022/09/18 01:32:35;;;;;;;4.10;1.40;;;;;;;10.51;100.00;100477.75;20889417;28;20091;-71
2022/09/18 01:42:36;;;;;;;4.47;1.00;;;;;;;10.58;100.00;100488.97;20888231;28;20103;-71
2022/09/18 01:52:38;;;;;;;4.57;1.23;;;;;;;10.62;100.00;100476.72;20889237;28;20524;-70
2022/09/18 02:02:40;;;;;;;4.40;1.50;;;;;;;10.50;100.00;100473.41;20898444;28;20300;-70
2022/09/18 02:12:41;;;;;;;6.15;1.20;;;;;;;10.56;100.00;100484.66;20901425;28;20098;-70
2022/09/18 02:22:42;;;;;;;3.63;1.17;;;;;;;10.55;100.00;100467.25;20848233;22;20053;-77
2022/09/18 02:32:44;;;;;;;5.03;1.30;;;;;;;10.53;100.00;100460.25;20823404;28;20056;-77
2022/09/18 02:42:45;;;;;;;6.97;1.45;;;;;;;10.52;100.00;100466.38;20823386;28;20049;-77
2022/09/18 02:52:46;;;;;;;4.45;1.40;;;;;;;10.41;100.00;100452.59;20821331;28;20132;-77
2022/09/18 03:02:48;;;;;;;5.00;1.40;;;;;;;10.48;100.00;100450.72;20821097;28;20506;-77
2022/09/18 03:12:49;;;;;;;4.53;1.35;;;;;;;10.46;100.00;100444.66;20818254;28;20406;-78
2022/09/18 03:22:51;;;;;;;4.60;1.40;;;;;;;10.52;100.00;100448.06;20819204;28;20053;-78
2022/09/18 03:32:52;;;;;;;4.40;1.30;;;;;;;10.51;100.00;100451.56;20820081;28;20089;-77
2022/09/18 03:42:53;;;;;;;7.40;1.40;;;;;;;10.50;100.00;100460.31;20800637;28;20052;-77
2022/09/18 03:52:55;;;;;;;7.57;1.52;;;;;;;10.39;100.00;100463.94;20812963;28;20046;-77
2022/09/18 04:02:56;;;;;;;5.05;1.40;;;;;;;10.29;100.00;100478.91;20800309;28;20477;-77
2022/09/18 04:12:58;;;;;;;6.03;1.38;;;;;;;10.31;100.00;100466.69;20797390;28;20086;-77
2022/09/18 04:22:59;;;;;;;4.55;1.35;;;;;;;10.28;100.00;100449.25;20797520;28;20072;-77
2022/09/18 04:33:01;;;;;;;6.75;1.73;;;;;;;10.28;100.00;100464.97;20796951;28;20045;-77
2022/09/18 04:43:02;;;;;;;5.88;1.65;;;;;;;10.37;100.00;100463.97;20813103;28;20099;-77
2022/09/18 04:53:03;;;;;;;5.60;1.83;;;;;;;10.44;100.00;100480.44;20814104;28;20057;-77
2022/09/18 05:03:05;;;;;;;6.47;1.85;;;;;;;10.48;100.00;100463.81;20813279;28;20056;-80
2022/09/18 05:13:06;;;;;;;9.32;3.10;;;;;;;10.31;100.00;100451.00;20813028;28;20517;-77
2022/09/18 05:23:25;;;;;;;7.90;2.20;;;;;;;10.37;100.00;100469.22;20900991;23;20130;-77
2022/09/18 05:33:27;;;;;;;12.10;2.55;;;;;;;10.27;100.00;100480.69;20801203;28;20054;-77
2022/09/18 05:43:28;;;;;;;8.05;2.17;;;;;;;10.27;100.00;100494.66;21508100;22;20063;-77
2022/09/18 05:53:30;;;;;;;10.80;1.88;;;;;;;10.30;100.00;100495.47;20843014;28;20057;-76
2022/09/18 06:03:31;;;;;;;9.07;1.70;;;;;;;10.34;100.00;100512.88;20866173;28;20494;-76
2022/09/18 06:13:32;;;;;;;9.20;1.80;;;;;;;10.55;100.00;100516.97;20838014;28;20490;-76
2022/09/18 06:23:34;;;;;;;9.05;3.78;;;;;;;10.69;100.00;100509.78;20884408;22;20060;-67
2022/09/18 06:33:35;;;;;;;5.60;1.92;;;;;;;10.84;100.00;100525.28;20817329;28;20103;-67
2022/09/18 06:43:36;;;;;;;8.00;2.05;;;;;;;10.81;100.00;100522.69;20817867;28;20468;-66
2022/09/18 06:53:38;;;;;;;5.47;1.83;;;;;;;10.89;100.00;100515.59;20817240;28;20119;-66
2022/09/18 07:03:39;;;;;;;4.68;1.40;;;;;;;10.96;100.00;100532.94;20815038;28;20053;-66
2022/09/18 07:13:41;;;;;;;5.07;1.58;;;;;;;11.10;100.00;100522.25;20811365;28;20111;-66
2022/09/18 07:23:42;;;;;;;6.53;1.75;;;;;;;11.04;100.00;100528.47;20814455;28;20049;-66
2022/09/18 07:33:43;;;;;;;8.10;1.80;;;;;;;11.46;100.00;100528.66;20815923;28;20054;-66
2022/09/18 07:43:44;;;;;;;5.72;1.52;;;;;;;11.97;100.00;100530.38;20813977;28;20500;-66
2022/09/18 07:53:46;;;;;;;4.28;1.55;;;;;;;12.04;100.00;100559.09;20809754;28;20495;-66
2022/09/18 08:03:47;;;;;;;6.47;1.60;;;;;;;11.95;100.00;100572.38;20804345;28;20100;-66
2022/09/18 08:13:48;;;;;;;6.15;1.50;;;;;;;12.26;100.00;100558.66;20802434;28;20076;-67
2022/09/18 08:23:50;;;;;;;4.95;1.50;;;;;;;12.25;100.00;100565.66;20804263;28;20494;-66
2022/09/18 08:33:51;;;;;;;6.18;1.40;;;;;;;12.21;100.00;100563.13;20804784;28;20096;-66
2022/09/18 08:43:53;;;;;;;7.05;1.40;;;;;;;12.38;100.00;100560.19;20806938;28;20476;-67
2022/09/18 08:53:54;;;;;;;6.90;1.77;;;;;;;12.61;100.00;100541.31;20807981;28;20049;-66
2022/09/18 09:03:56;;;;;;;6.47;1.60;;;;;;;13.21;100.00;100532.91;20806817;28;20049;-67
2022/09/18 09:13:57;;;;;;;5.45;1.10;;;;;;;13.12;100.00;100538.38;20821944;28;20104;-67
2022/09/18 09:23:58;;;;;;;6.85;1.40;;;;;;;13.79;100.00;100534.06;20822799;28;20049;-66
2022/09/18 09:34:00;;;;;;;5.30;0.95;;;;;;;13.89;100.00;100527.66;20821755;28;20092;-66
2022/09/18 09:44:01;;;;;;;6.90;1.52;;;;;;;14.17;97.48;100524.25;20821350;28;20119;-65
2022/09/18 09:54:02;;;;;;;4.93;1.10;;;;;;;14.96;94.34;100518.41;20817907;28;20049;-66
2022/09/18 10:04:04;;;;;;;6.53;1.35;;;;;;;15.03;86.34;100507.59;20819279;28;20061;-66
2022/09/18 10:14:05;;;;;;;4.43;1.00;;;;;;;15.11;86.14;100500.31;20817911;28;20448;-66
2022/09/18 10:24:06;;;;;;;9.30;1.60;;;;;;;15.21;82.84;100490.31;20818595;28;20045;-66
2022/09/18 10:34:08;;;;;;;3.83;0.85;;;;;;;15.44;80.73;100473.72;20816568;28;20415;-66
2022/09/18 10:44:09;;;;;;;5.38;0.80;;;;;;;15.80;77.24;100460.16;20816442;28;20057;-64
2022/09/18 10:54:11;;;;;;;5.90;1.30;;;;;;;15.79;76.02;100461.06;20814599;28;20061;-66
2022/09/18 11:04:12;;;;;;;4.70;0.82;;;;;;;15.60;72.68;100459.06;20814192;28;20053;-64
2022/09/18 11:14:13;;;;;;;4.90;0.70;;;;;;;16.04;71.39;100440.75;20799041;28;20065;-65
2022/09/18 11:24:14;;;;;;;3.17;1.00;;;;;;;15.62;71.43;100441.41;20801065;28;20053;-65
2022/09/18 11:34:16;;;;;;;6.07;1.02;;;;;;;16.07;72.61;100430.09;20794772;28;20053;-65
2022/09/18 11:44:17;;;;;;;4.40;1.15;;;;;;;15.97;71.38;100431.34;20655664;28;20084;-64
2022/09/18 11:54:18;;;;;;;5.47;0.88;;;;;;;16.51;57.89;100409.00;20802352;28;20085;-64
2022/09/18 12:04:20;;;;;;;4.05;0.80;;;;;;;15.88;58.07;100418.50;20803643;28;20080;-65
2022/09/18 12:14:21;;;;;;;3.22;0.77;;;;;;;15.48;57.50;100398.81;20798014;28;20465;-65
2022/09/18 12:24:23;;;;;;;4.30;0.95;;;;;;;16.26;57.30;100382.69;20794394;28;20476;-64
2022/09/18 12:34:24;;;;;;;2.80;0.75;;;;;;;15.91;57.11;100378.78;20801842;28;20067;-64
2022/09/18 12:44:25;;;;;;;3.50;1.00;;;;;;;16.03;57.12;100386.22;20797637;28;20103;-65
2022/09/18 12:54:27;;;;;;;2.78;0.70;;;;;;;15.51;58.29;100390.75;20792114;28;20111;-66
2022/09/18 13:04:28;;;;;;;6.03;1.10;;;;;;;15.14;58.39;100391.22;20788937;28;20084;-65
2022/09/18 13:14:29;;;;;;;4.82;0.85;;;;;;;15.40;59.29;100374.47;20735181;28;20085;-67
2022/09/18 13:24:34;;;;;;;3.50;0.80;;;;;;;15.36;58.23;100365.78;20727485;28;20718;-67
2022/09/18 13:34:35;;;;;;;1.63;0.63;;;;;;;15.28;57.59;100356.44;20767707;28;20054;-66
2022/09/18 13:44:36;;;;;;;4.38;0.90;;;;;;;15.51;57.50;100337.13;20729543;28;20400;-65
2022/09/18 13:54:38;;;;;;;2.75;1.02;;;;;;;15.30;57.11;100322.97;20807142;28;20080;-66
2022/09/18 14:04:41;;;;;;;6.97;1.17;;;;;;;15.20;58.68;100332.97;20814594;28;20095;-65
2022/09/18 14:14:43;;;;;;;4.28;1.05;;;;;;;15.21;58.81;100318.00;20811251;28;20053;-65
2022/09/18 14:24:44;;;;;;;3.38;0.80;;;;;;;15.17;58.80;100308.50;20813932;28;20112;-65
2022/09/18 14:34:45;;;;;;;4.10;1.27;;;;;;;15.13;59.30;100298.03;20808553;28;20041;-66
2022/09/18 14:44:47;;;;;;;3.05;1.20;;;;;;;15.04;57.68;100295.75;20809553;28;20057;-66
2022/09/18 14:54:48;;;;;;;2.00;0.77;;;;;;;14.96;58.03;100273.22;20800612;28;20049;-66
2022/09/18 15:04:49;;;;;;;5.05;1.40;;;;;;;14.88;57.56;100276.09;20807817;28;20053;-66
2022/09/18 15:14:51;;;;;;;4.30;0.80;;;;;;;14.85;56.61;100252.47;20809590;28;20086;-66
2022/09/18 15:24:53;;;;;;;3.15;1.20;;;;;;;14.87;58.01;100245.41;20805960;28;20100;-66
2022/09/18 15:34:54;;;;;;;4.50;1.35;;;;;;;14.89;56.86;100230.38;20805339;28;20060;-67
2022/09/18 15:44:56;;;;;;;2.05;0.93;;;;;;;14.86;57.49;100225.22;20806742;28;20053;-67
2022/09/18 15:54:57;;;;;;;2.38;0.82;;;;;;;14.90;56.97;100218.94;20806971;28;20103;-66
2022/09/18 16:04:58;;;;;;;1.52;0.70;;;;;;;15.02;56.69;100207.91;20797750;28;20141;-69
2022/09/18 16:15:00;;;;;;;7.75;2.60;;;;;;;14.96;57.34;100194.13;20798249;28;20130;-67
2022/09/18 16:25:01;;;;;;;3.08;1.00;;;;;;;14.78;58.67;100187.75;20791768;28;20060;-67
2022/09/18 16:35:02;;;;;;;4.88;1.10;;;;;;;14.71;57.93;100183.59;20804779;28;20056;-67
2022/09/18 16:45:04;;;;;;;2.65;0.70;;;;;;;14.57;58.70;100177.06;20803445;28;20049;-67
2022/09/18 16:55:06;;;;;;;3.45;1.00;;;;;;;14.48;59.40;100189.69;20803117;28;20057;-67
2022/09/18 17:05:07;;;;;;;4.32;1.08;;;;;;;14.41;59.27;100189.00;20794033;28;20079;-66
2022/09/18 17:15:08;;;;;;;2.70;0.68;;;;;;;14.46;59.21;100178.31;20799973;28;20391;-67
2022/09/18 17:25:11;;;;;;;4.60;1.10;;;;;;;14.35;59.87;100181.31;20795965;28;20181;-66
2022/09/18 17:35:12;;;;;;;4.50;0.70;;;;;;;14.30;61.08;100183.25;20817453;28;20052;-67
2022/09/18 17:45:13;;;;;;;7.05;1.23;;;;;;;14.30;60.39;100193.78;20816419;28;20057;-67
2022/09/18 17:55:15;;;;;;;5.55;0.80;;;;;;;14.37;57.64;100192.66;20816585;28;20060;-67
2022/09/18 18:05:16;;;;;;;4.03;0.70;;;;;;;14.41;57.03;100199.53;20817065;28;20057;-67
2022/09/18 18:15:18;;;;;;;2.65;0.63;;;;;;;14.37;56.77;100190.03;20813920;28;20111;-67
2022/09/18 18:25:22;;;;;;;5.05;1.15;;;;;;;14.31;56.20;100200.78;20810456;28;20057;-66
2022/09/18 18:35:23;;;;;;;1.80;0.70;;;;;;;14.25;55.54;100212.38;20813350;28;20107;-66
2022/09/18 18:45:25;;;;;;;4.38;0.75;;;;;;;14.12;56.27;100217.19;20810990;28;20262;-67
2022/09/18 18:55:26;;;;;;;3.35;1.50;;;;;;;14.14;56.36;100224.19;20812255;28;20417;-67
2022/09/18 19:05:29;;;;;;;8.45;3.30;;;;;;;14.15;55.41;100225.91;20805049;28;20049;-67
2022/09/18 19:15:30;;;;;;;2.67;0.80;;;;;;;14.06;58.08;100235.81;20808085;28;20053;-67
2022/09/18 19:25:35;;;;;;;5.28;1.30;;;;;;;13.96;58.83;100246.72;20809196;28;20057;-67
2022/09/18 19:35:37;;;;;;;1.88;0.60;;;;;;;13.72;61.29;100251.84;20807753;28;20057;-67
2022/09/18 19:45:38;;;;;;;4.47;0.85;;;;;;;13.54;63.82;100255.88;20809038;28;20057;-67
2022/09/18 19:55:43;;;;;;;5.30;1.17;;;;;;;13.44;63.94;100259.69;20803971;28;20112;-66
2022/09/18 20:05:44;;;;;;;3.67;0.80;;;;;;;13.39;64.30;100251.09;20805739;28;20073;-67
2022/09/18 20:15:45;;;;;;;5.43;0.85;;;;;;;13.45;63.14;100235.13;20798716;28;20095;-67
2022/09/18 20:25:48;;;;;;;3.13;0.70;;;;;;;13.38;60.93;100225.69;20802246;28;20049;-67
2022/09/18 20:35:51;;;;;;;3.85;0.80;;;;;;;13.46;61.20;100222.81;20794129;28;20049;-66
2022/09/18 20:45:53;;;;;;;2.80;0.70;;;;;;;13.45;60.61;100221.97;20802711;28;20045;-66
2022/09/18 20:55:54;;;;;;;2.58;0.80;;;;;;;13.42;60.39;100243.13;20804205;28;20699;-67
2022/09/18 21:05:55;;;;;;;1.65;0.63;;;;;;;13.42;61.73;100256.28;20806211;28;20478;-66
2022/09/18 21:16:19;;;;;;;2.85;0.70;;;;;;;13.45;61.80;100268.44;20819325;28;20081;-66
2022/09/18 21:26:20;;;;;;;2.40;0.70;;;;;;;13.44;62.13;100275.47;20817615;28;20092;-66
2022/09/18 21:36:22;;;;;;;1.73;0.70;;;;;;;13.30;63.66;100283.78;20817079;28;20065;-65
2022/09/18 21:46:24;;;;;;;3.38;0.80;;;;;;;13.30;66.32;100302.16;20817601;28;20068;-66
2022/09/18 21:56:25;;;;;;;3.38;0.70;;;;;;;12.88;71.03;100325.19;20816533;28;20060;-66
2022/09/18 22:06:27;;;;;;;3.00;0.80;;;;;;;12.73;73.37;100344.00;20815798;28;20087;-66
2022/09/18 22:16:28;;;;;;;3.58;1.40;;;;;;;12.26;76.40;100401.13;20818744;28;20083;-66
2022/09/18 22:26:29;;;;;;;4.53;1.58;;;;;;;9.57;100.00;100439.66;20816913;28;20540;-71
2022/09/18 22:36:31;;;;;;;2.55;0.45;;;;;;;9.45;100.00;100443.28;20816153;28;20064;-72
2022/09/18 22:46:32;;;;;;;1.58;0.47;;;;;;;9.50;100.00;100441.47;20816560;28;20080;-71
2022/09/18 22:56:35;;;;;;;22.85;8.40;;;;;;;9.61;100.00;100438.75;20816508;28;20053;-69
2022/09/18 23:06:36;;;;;;;1.17;0.30;;;;;;;9.83;100.00;100431.53;20814408;28;20053;-70
2022/09/18 23:16:37;;;;;;;1.33;0.50;;;;;;;9.89;100.00;100445.38;20814473;28;20096;-70
2022/09/18 23:26:39;;;;;;;1.63;0.40;;;;;;;9.72;100.00;100445.56;20812632;28;20057;-72
2022/09/18 23:36:40;;;;;;;2.85;1.55;;;;;;;9.38;100.00;100458.13;20811404;28;20111;-71
2022/09/18 23:46:42;;;;;;;3.25;0.30;;;;;;;9.11;100.00;100464.50;20812624;28;20597;-70
2022/09/18 23:56:43;;;;;;;1.85;0.50;;;;;;;8.99;100.00;100462.84;20811489;28;20049;-71
